| time (UTC) | temp F | wind direction | speed MPH | gust MPH | rain 1hr in | rain 24hr in | rain mn in | humidity % | barometer mb |
| 20260902094502 | 56 | 198 | 3.0 | 0.0 | 0.00 | 0.00 | 0.00 | 60 | 1006.7 |
| 20260902093002 | 53 | 198 | 3.0 | 0.0 | 0.00 | 0.00 | 0.00 | 60 | 1006.7 |
| 20260902091502 | 53 | 198 | 3.0 | 0.0 | 0.00 | 0.00 | 0.00 | 60 | 1006.7 |
| 20260902090002 | 53 | 198 | 3.0 | 0.0 | 0.00 | 0.00 | 0.00 | 60 | 1006.7 |
| 20260902084502 | 53 | 198 | 3.0 | 0.0 | 0.00 | 0.00 | 0.00 | 60 | 1006.7 |
| 20260902083002 | 53 | 198 | 3.0 | 0.0 | 0.00 | 0.00 | 0.00 | 60 | 1006.7 |
| 20260902081502 | 51 | 220 | 3.0 | 0.0 | 0.00 | 0.00 | 0.00 | 64 | 1006.7 |
| 20260902080001 | 51 | 220 | 3.0 | 0.0 | 0.00 | 0.00 | 0.00 | 64 | 1006.7 |
| 20260902074502 | 51 | 220 | 3.0 | 0.0 | 0.00 | 0.00 | 0.00 | 64 | 1006.7 |
| 20260902073001 | 48 | 254 | 2.0 | 0.0 | 0.00 | 0.00 | 0.00 | 73 | 1006.7 |
| 20260902071502 | 48 | 254 | 2.0 | 0.0 | 0.00 | 0.00 | 0.00 | 73 | 1006.7 |
| 20260902070002 | 48 | 254 | 2.0 | 0.0 | 0.00 | 0.00 | 0.00 | 76 | 1006.7 |
| 20260902064502 | 48 | 254 | 2.0 | 0.0 | 0.00 | 0.00 | 0.00 | 76 | 1006.7 |
| 20260902063002 | 48 | 254 | 2.0 | 0.0 | 0.00 | 0.00 | 0.00 | 76 | 1006.7 |
| 20260902061502 | 46 | 268 | 3.0 | 0.0 | 0.00 | 0.00 | 0.00 | 82 | 1006.1 |
| 20260902060001 | 46 | 268 | 3.0 | 0.0 | 0.00 | 0.00 | 0.00 | 82 | 1006.1 |
| 20260902054502 | 46 | 268 | 3.0 | 0.0 | 0.00 | 0.00 | 0.00 | 82 | 1006.1 |
| 20260902053002 | 47 | 272 | 3.0 | 0.0 | 0.00 | 0.00 | 0.00 | 85 | 1006.1 |
| 20260902051502 | 47 | 272 | 3.0 | 0.0 | 0.00 | 0.00 | 0.00 | 85 | 1006.1 |
| 20260902050002 | 47 | 272 | 3.0 | 0.0 | 0.00 | 0.00 | 0.00 | 85 | 1006.1 |
| 20260902044502 | 47 | 272 | 3.0 | 0.0 | 0.00 | 0.00 | 0.00 | 85 | 1006.1 |
| 20260902043002 | 47 | 272 | 3.0 | 0.0 | 0.00 | 0.00 | 0.00 | 85 | 1006.1 |
| 20260902041502 | 48 | 274 | 3.0 | 0.0 | 0.00 | 0.00 | 0.00 | 85 | 1005.4 |
| 20260902040002 | 48 | 274 | 3.0 | 0.0 | 0.00 | 0.00 | 0.00 | 85 | 1005.4 |
| 20260902034502 | 48 | 274 | 3.0 | 0.0 | 0.00 | 0.00 | 0.00 | 85 | 1005.4 |
| 20260902033002 | 50 | 256 | 3.0 | 0.0 | 0.00 | 0.00 | 0.00 | 77 | 1006.1 |
| 20260902031501 | 50 | 256 | 3.0 | 0.0 | 0.00 | 0.00 | 0.00 | 77 | 1006.1 |
| 20260902030002 | 50 | 256 | 3.0 | 0.0 | 0.00 | 0.00 | 0.00 | 77 | 1006.1 |
| 20260902024501 | 50 | 256 | 3.0 | 0.0 | 0.00 | 0.00 | 0.00 | 77 | 1006.1 |
| 20260902023002 | 50 | 256 | 3.0 | 0.0 | 0.00 | 0.00 | 0.00 | 77 | 1006.1 |
| 20260902021501 | 51 | 266 | 3.0 | 0.0 | 0.00 | 0.00 | 0.00 | 73 | 1006.1 |
| 20260902020002 | 51 | 266 | 3.0 | 0.0 | 0.00 | 0.00 | 0.00 | 73 | 1006.1 |
| 20260902014501 | 51 | 266 | 3.0 | 0.0 | 0.00 | 0.00 | 0.00 | 73 | 1006.1 |
| 20260902013002 | 51 | 272 | 3.0 | 0.0 | 0.00 | 0.00 | 0.00 | 73 | 1006.1 |
| 20260902011501 | 51 | 272 | 3.0 | 0.0 | 0.00 | 0.00 | 0.00 | 73 | 1006.1 |
| 20260902010002 | 51 | 268 | 3.0 | 0.0 | 0.00 | 0.00 | 0.00 | 73 | 1006.1 |
| 20260902004501 | 51 | 268 | 3.0 | 0.0 | 0.00 | 0.00 | 0.00 | 72 | 1006.1 |
| 20260902003002 | 51 | 268 | 3.0 | 0.0 | 0.00 | 0.00 | 0.00 | 72 | 1006.1 |
| 20260902001501 | 51 | 280 | 3.0 | 0.0 | 0.00 | 0.00 | 0.00 | 74 | 1006.1 |
| 20260902000003 | 51 | 280 | 3.0 | 0.0 | 0.00 | 0.00 | 0.00 | 74 | 1006.1 |
| 20260901234502 | 51 | 280 | 3.0 | 0.0 | 0.00 | 0.00 | 0.00 | 74 | 1006.1 |
| 20260901233003 | 52 | 284 | 3.0 | 0.0 | 0.00 | 0.00 | 0.00 | 78 | 1006.1 |
| 20260901231502 | 52 | 284 | 3.0 | 0.0 | 0.00 | 0.00 | 0.00 | 78 | 1006.1 |
| 20260901230002 | 52 | 284 | 3.0 | 0.0 | 0.00 | 0.00 | 0.00 | 78 | 1006.1 |
| 20260901224502 | 53 | 284 | 3.0 | 0.0 | 0.00 | 0.00 | 0.00 | 78 | 1006.1 |
| 20260901223002 | 53 | 284 | 3.0 | 0.0 | 0.00 | 0.00 | 0.00 | 78 | 1006.1 |
| 20260901221502 | 54 | 289 | 4.0 | 0.0 | 0.00 | 0.00 | 0.00 | 89 | 1006.1 |
| 20260901220001 | 54 | 289 | 4.0 | 0.0 | 0.00 | 0.00 | 0.00 | 89 | 1006.1 |
| 20260901214502 | 54 | 289 | 4.0 | 0.0 | 0.00 | 0.00 | 0.00 | 89 | 1006.1 |
| 20260901213002 | 54 | 280 | 3.0 | 0.0 | 0.00 | 0.00 | 0.00 | 96 | 1006.1 |
| 20260901211502 | 54 | 280 | 3.0 | 0.0 | 0.00 | 0.00 | 0.00 | 96 | 1006.1 |
| 20260901210002 | 54 | 280 | 3.0 | 0.0 | 0.00 | 0.00 | 0.00 | 96 | 1006.1 |
| 20260901204502 | 54 | 280 | 3.0 | 0.0 | 0.00 | 0.00 | 0.00 | 96 | 1006.1 |
| 20260901203001 | 54 | 280 | 3.0 | 0.0 | 0.00 | 0.00 | 0.00 | 96 | 1006.1 |
| 20260901201502 | 56 | 280 | 2.0 | 0.0 | 0.00 | 0.00 | 0.00 | 92 | 1006.1 |
| 20260901200002 | 56 | 280 | 2.0 | 0.0 | 0.00 | 0.00 | 0.00 | 92 | 1006.1 |
| 20260901194502 | 56 | 280 | 2.0 | 0.0 | 0.00 | 0.00 | 0.00 | 92 | 1006.1 |
| 20260901193001 | 57 | 218 | 3.0 | 0.0 | 0.00 | 0.00 | 0.00 | 84 | 1006.1 |
| 20260901191502 | 57 | 218 | 3.0 | 0.0 | 0.00 | 0.00 | 0.00 | 84 | 1006.1 |
| 20260901190002 | 58 | 205 | 3.0 | 0.0 | 0.00 | 0.00 | 0.00 | 82 | 1006.1 |
| 20260901184502 | 58 | 205 | 3.0 | 0.0 | 0.00 | 0.00 | 0.00 | 82 | 1006.1 |
| 20260901183002 | 58 | 205 | 3.0 | 0.0 | 0.00 | 0.00 | 0.00 | 82 | 1006.1 |
| 20260901181502 | 59 | 150 | 1.0 | 0.0 | 0.00 | 0.00 | 0.00 | 81 | 1006.1 |
| 20260901180002 | 59 | 150 | 1.0 | 0.0 | 0.00 | 0.00 | 0.00 | 81 | 1006.1 |
| 20260901174502 | 59 | 150 | 1.0 | 0.0 | 0.00 | 0.00 | 0.00 | 81 | 1006.1 |
| 20260901173002 | 60 | 128 | 2.0 | 0.0 | 0.00 | 0.00 | 0.00 | 75 | 1006.7 |
| 20260901171501 | 60 | 128 | 2.0 | 0.0 | 0.00 | 0.00 | 0.00 | 75 | 1006.7 |
| 20260901170002 | 62 | 128 | 2.0 | 0.0 | 0.00 | 0.00 | 0.00 | 75 | 1006.7 |
| 20260901164501 | 62 | 128 | 2.0 | 0.0 | 0.00 | 0.00 | 0.00 | 75 | 1006.7 |
| 20260901163002 | 62 | 128 | 2.0 | 0.0 | 0.00 | 0.00 | 0.00 | 75 | 1006.7 |
| 20260901161501 | 64 | 130 | 4.0 | 0.0 | 0.00 | 0.00 | 0.00 | 67 | 1006.7 |
| 20260901160002 | 64 | 130 | 4.0 | 0.0 | 0.00 | 0.00 | 0.00 | 67 | 1006.7 |
| 20260901154501 | 64 | 130 | 4.0 | 0.0 | 0.00 | 0.00 | 0.00 | 67 | 1006.7 |
| 20260901153002 | 67 | 126 | 3.0 | 0.0 | 0.00 | 0.00 | 0.00 | 62 | 1006.7 |
| 20260901151502 | 67 | 126 | 3.0 | 0.0 | 0.00 | 0.00 | 0.00 | 62 | 1006.7 |
| 20260901150002 | 65 | 126 | 3.0 | 0.0 | 0.00 | 0.00 | 0.00 | 62 | 1006.7 |
| 20260901144501 | 65 | 126 | 3.0 | 0.0 | 0.00 | 0.00 | 0.00 | 62 | 1006.7 |
| 20260901143002 | 65 | 126 | 3.0 | 0.0 | 0.00 | 0.00 | 0.00 | 62 | 1006.7 |
| 20260901141501 | 65 | 128 | 3.0 | 0.0 | 0.00 | 0.00 | 0.00 | 60 | 1007.4 |
| 20260901140002 | 65 | 128 | 3.0 | 0.0 | 0.00 | 0.00 | 0.00 | 60 | 1007.4 |
| 20260901134502 | 64 | 122 | 3.0 | 0.0 | 0.00 | 0.00 | 0.00 | 64 | 1007.4 |
| 20260901133002 | 64 | 122 | 3.0 | 0.0 | 0.00 | 0.00 | 0.00 | 64 | 1007.4 |
| 20260901131502 | 64 | 122 | 3.0 | 0.0 | 0.00 | 0.00 | 0.00 | 64 | 1007.4 |
| 20260901130002 | 63 | 118 | 3.0 | 0.0 | 0.00 | 0.00 | 0.00 | 63 | 1008.0 |
| 20260901124502 | 63 | 118 | 3.0 | 0.0 | 0.00 | 0.00 | 0.00 | 63 | 1008.0 |
| 20260901123001 | 63 | 118 | 3.0 | 0.0 | 0.00 | 0.00 | 0.00 | 63 | 1008.0 |
| 20260901121502 | 62 | 120 | 3.0 | 0.0 | 0.00 | 0.00 | 0.00 | 67 | 1008.0 |
| 20260901120001 | 62 | 120 | 3.0 | 0.0 | 0.00 | 0.00 | 0.00 | 67 | 1008.0 |
| 20260901114502 | 62 | 114 | 3.0 | 0.0 | 0.00 | 0.00 | 0.00 | 70 | 1008.6 |
| 20260901113002 | 60 | 114 | 3.0 | 0.0 | 0.00 | 0.00 | 0.00 | 70 | 1008.6 |
| 20260901111502 | 60 | 114 | 3.0 | 0.0 | 0.00 | 0.00 | 0.00 | 70 | 1008.6 |
| 20260901110004 | 60 | 114 | 3.0 | 0.0 | 0.00 | 0.00 | 0.00 | 70 | 1008.6 |
| 20260901104502 | 60 | 114 | 3.0 | 0.0 | 0.00 | 0.00 | 0.00 | 70 | 1008.6 |
| 20260901103002 | 60 | 114 | 3.0 | 0.0 | 0.00 | 0.00 | 0.00 | 70 | 1008.6 |
| 20260901101502 | 58 | 112 | 3.0 | 0.0 | 0.00 | 0.00 | 0.00 | 73 | 1008.6 |
| 20260901100002 | 58 | 112 | 3.0 | 0.0 | 0.00 | 0.00 | 0.00 | 73 | 1008.6 |